sensor_id;sensor_type;location;lat;lon;timestamp;P1;durP1;ratioP1;P2;durP2;ratioP2
22673;SDS011;11504;43.334;21.918;2022-07-10T00:00:54;18.0;;;16.0;;
22673;SDS011;11504;43.334;21.918;2022-07-10T00:05:31;16.0;;;15.0;;
22673;SDS011;11504;43.334;21.918;2022-07-10T00:10:08;16.0;;;15.0;;
22673;SDS011;11504;43.334;21.918;2022-07-10T00:14:45;17.0;;;16.0;;
22673;SDS011;11504;43.334;21.918;2022-07-10T00:19:22;17.0;;;16.0;;
22673;SDS011;11504;43.334;21.918;2022-07-10T00:23:58;18.0;;;17.0;;
22673;SDS011;11504;43.334;21.918;2022-07-10T00:28:34;18.0;;;17.0;;
22673;SDS011;11504;43.334;21.918;2022-07-10T00:33:10;18.0;;;16.0;;
22673;SDS011;11504;43.334;21.918;2022-07-10T00:37:46;18.0;;;16.0;;
22673;SDS011;11504;43.334;21.918;2022-07-10T00:42:23;18.0;;;16.0;;
22673;SDS011;11504;43.334;21.918;2022-07-10T00:46:59;17.0;;;16.0;;
22673;SDS011;11504;43.334;21.918;2022-07-10T00:51:37;17.0;;;16.0;;
22673;SDS011;11504;43.334;21.918;2022-07-10T00:56:16;16.0;;;16.0;;
22673;SDS011;11504;43.334;21.918;2022-07-10T01:01:02;16.0;;;16.0;;
22673;SDS011;11504;43.334;21.918;2022-07-10T01:05:39;15.0;;;15.0;;
22673;SDS011;11504;43.334;21.918;2022-07-10T01:10:16;15.0;;;15.0;;
22673;SDS011;11504;43.334;21.918;2022-07-10T01:14:54;16.0;;;16.0;;
22673;SDS011;11504;43.334;21.918;2022-07-10T01:19:31;16.0;;;16.0;;
22673;SDS011;11504;43.334;21.918;2022-07-10T01:24:10;17.0;;;16.0;;
22673;SDS011;11504;43.334;21.918;2022-07-10T01:28:48;17.0;;;16.0;;
22673;SDS011;11504;43.334;21.918;2022-07-10T01:33:28;18.0;;;16.0;;
22673;SDS011;11504;43.334;21.918;2022-07-10T01:38:04;18.0;;;16.0;;
22673;SDS011;11504;43.334;21.918;2022-07-10T01:42:41;18.0;;;16.0;;
22673;SDS011;11504;43.334;21.918;2022-07-10T01:47:17;18.0;;;17.0;;
22673;SDS011;11504;43.334;21.918;2022-07-10T01:51:53;18.0;;;17.0;;
22673;SDS011;11504;43.334;21.918;2022-07-10T01:56:30;18.0;;;16.0;;
22673;SDS011;11504;43.334;21.918;2022-07-10T02:01:08;18.0;;;16.0;;
22673;SDS011;11504;43.334;21.918;2022-07-10T02:05:48;17.0;;;14.0;;
22673;SDS011;11504;43.334;21.918;2022-07-10T02:10:24;17.0;;;14.0;;
22673;SDS011;11504;43.334;21.918;2022-07-10T02:15:01;16.0;;;14.0;;
22673;SDS011;11504;43.334;21.918;2022-07-10T02:19:41;16.0;;;14.0;;
22673;SDS011;11504;43.334;21.918;2022-07-10T02:24:18;14.0;;;13.0;;
22673;SDS011;11504;43.334;21.918;2022-07-10T02:28:54;14.0;;;13.0;;
22673;SDS011;11504;43.334;21.918;2022-07-10T02:33:31;14.0;;;14.0;;
22673;SDS011;11504;43.334;21.918;2022-07-10T02:38:07;14.0;;;14.0;;
22673;SDS011;11504;43.334;21.918;2022-07-10T02:42:44;14.0;;;14.0;;
22673;SDS011;11504;43.334;21.918;2022-07-10T02:47:21;15.0;;;14.0;;
22673;SDS011;11504;43.334;21.918;2022-07-10T02:51:57;15.0;;;14.0;;
22673;SDS011;11504;43.334;21.918;2022-07-10T02:56:33;15.0;;;14.0;;
22673;SDS011;11504;43.334;21.918;2022-07-10T03:01:09;15.0;;;14.0;;
22673;SDS011;11504;43.334;21.918;2022-07-10T03:05:46;15.0;;;14.0;;
22673;SDS011;11504;43.334;21.918;2022-07-10T03:10:22;15.0;;;14.0;;
22673;SDS011;11504;43.334;21.918;2022-07-10T03:14:59;14.0;;;14.0;;
22673;SDS011;11504;43.334;21.918;2022-07-10T03:19:35;14.0;;;14.0;;
22673;SDS011;11504;43.334;21.918;2022-07-10T03:24:11;14.0;;;13.0;;
22673;SDS011;11504;43.334;21.918;2022-07-10T03:28:48;14.0;;;13.0;;
22673;SDS011;11504;43.334;21.918;2022-07-10T03:33:24;14.0;;;13.0;;
22673;SDS011;11504;43.334;21.918;2022-07-10T03:38:00;14.0;;;13.0;;
22673;SDS011;11504;43.334;21.918;2022-07-10T03:42:37;14.0;;;13.0;;
22673;SDS011;11504;43.334;21.918;2022-07-10T03:47:14;14.0;;;13.0;;
22673;SDS011;11504;43.334;21.918;2022-07-10T03:51:50;14.0;;;13.0;;
22673;SDS011;11504;43.334;21.918;2022-07-10T03:56:27;14.0;;;14.0;;
22673;SDS011;11504;43.334;21.918;2022-07-10T04:01:04;14.0;;;14.0;;
22673;SDS011;11504;43.334;21.918;2022-07-10T04:05:40;15.0;;;14.0;;
22673;SDS011;11504;43.334;21.918;2022-07-10T04:10:17;15.0;;;14.0;;
22673;SDS011;11504;43.334;21.918;2022-07-10T04:14:55;16.0;;;15.0;;
22673;SDS011;11504;43.334;21.918;2022-07-10T04:19:32;16.0;;;15.0;;
22673;SDS011;11504;43.334;21.918;2022-07-10T04:24:08;17.0;;;16.0;;
22673;SDS011;11504;43.334;21.918;2022-07-10T04:28:44;17.0;;;16.0;;
22673;SDS011;11504;43.334;21.918;2022-07-10T04:33:21;16.0;;;16.0;;
22673;SDS011;11504;43.334;21.918;2022-07-10T04:37:58;16.0;;;16.0;;
22673;SDS011;11504;43.334;21.918;2022-07-10T04:42:34;16.0;;;16.0;;
22673;SDS011;11504;43.334;21.918;2022-07-10T04:47:12;16.0;;;15.0;;
22673;SDS011;11504;43.334;21.918;2022-07-10T04:51:48;16.0;;;15.0;;
22673;SDS011;11504;43.334;21.918;2022-07-10T04:56:26;16.0;;;15.0;;
22673;SDS011;11504;43.334;21.918;2022-07-10T05:01:03;16.0;;;15.0;;
22673;SDS011;11504;43.334;21.918;2022-07-10T05:05:41;16.0;;;15.0;;
22673;SDS011;11504;43.334;21.918;2022-07-10T05:10:18;16.0;;;15.0;;
22673;SDS011;11504;43.334;21.918;2022-07-10T05:14:55;16.0;;;15.0;;
22673;SDS011;11504;43.334;21.918;2022-07-10T05:19:32;16.0;;;15.0;;
22673;SDS011;11504;43.334;21.918;2022-07-10T05:24:08;16.0;;;15.0;;
22673;SDS011;11504;43.334;21.918;2022-07-10T05:28:45;16.0;;;15.0;;
22673;SDS011;11504;43.334;21.918;2022-07-10T05:33:21;16.0;;;15.0;;
22673;SDS011;11504;43.334;21.918;2022-07-10T05:37:57;16.0;;;15.0;;
22673;SDS011;11504;43.334;21.918;2022-07-10T05:42:34;16.0;;;15.0;;
22673;SDS011;11504;43.334;21.918;2022-07-10T05:47:10;16.0;;;15.0;;
22673;SDS011;11504;43.334;21.918;2022-07-10T05:51:46;16.0;;;15.0;;
22673;SDS011;11504;43.334;21.918;2022-07-10T05:56:22;16.0;;;14.0;;
22673;SDS011;11504;43.334;21.918;2022-07-10T06:00:58;16.0;;;14.0;;
22673;SDS011;11504;43.334;21.918;2022-07-10T06:05:35;15.0;;;14.0;;
22673;SDS011;11504;43.334;21.918;2022-07-10T06:10:12;15.0;;;14.0;;
22673;SDS011;11504;43.334;21.918;2022-07-10T06:14:48;14.0;;;14.0;;
22673;SDS011;11504;43.334;21.918;2022-07-10T06:19:24;14.0;;;14.0;;
22673;SDS011;11504;43.334;21.918;2022-07-10T06:24:01;14.0;;;13.0;;
22673;SDS011;11504;43.334;21.918;2022-07-10T06:28:40;14.0;;;13.0;;
22673;SDS011;11504;43.334;21.918;2022-07-10T06:33:17;13.0;;;12.0;;
22673;SDS011;11504;43.334;21.918;2022-07-10T06:37:53;13.0;;;12.0;;
22673;SDS011;11504;43.334;21.918;2022-07-10T06:42:30;13.0;;;12.0;;
22673;SDS011;11504;43.334;21.918;2022-07-10T06:47:08;12.0;;;11.0;;
22673;SDS011;11504;43.334;21.918;2022-07-10T06:51:54;12.0;;;11.0;;
22673;SDS011;11504;43.334;21.918;2022-07-10T06:56:32;10.0;;;10.0;;
22673;SDS011;11504;43.334;21.918;2022-07-10T07:01:09;10.0;;;10.0;;
22673;SDS011;11504;43.334;21.918;2022-07-10T07:05:46;9.0;;;8.0;;
22673;SDS011;11504;43.334;21.918;2022-07-10T07:10:22;9.0;;;8.0;;
22673;SDS011;11504;43.334;21.918;2022-07-10T07:14:59;10.0;;;8.0;;
22673;SDS011;11504;43.334;21.918;2022-07-10T07:19:36;10.0;;;8.0;;
22673;SDS011;11504;43.334;21.918;2022-07-10T07:24:15;10.0;;;9.0;;
22673;SDS011;11504;43.334;21.918;2022-07-10T07:28:53;10.0;;;9.0;;
22673;SDS011;11504;43.334;21.918;2022-07-10T07:33:30;10.0;;;8.0;;
22673;SDS011;11504;43.334;21.918;2022-07-10T07:38:07;10.0;;;8.0;;
22673;SDS011;11504;43.334;21.918;2022-07-10T07:42:43;10.0;;;8.0;;
22673;SDS011;11504;43.334;21.918;2022-07-10T07:47:20;9.0;;;8.0;;
22673;SDS011;11504;43.334;21.918;2022-07-10T07:51:56;9.0;;;8.0;;
22673;SDS011;11504;43.334;21.918;2022-07-10T07:56:33;10.0;;;8.0;;
22673;SDS011;11504;43.334;21.918;2022-07-10T08:01:10;10.0;;;8.0;;
22673;SDS011;11504;43.334;21.918;2022-07-10T08:05:46;10.0;;;9.0;;
22673;SDS011;11504;43.334;21.918;2022-07-10T08:10:26;10.0;;;9.0;;
22673;SDS011;11504;43.334;21.918;2022-07-10T08:15:06;10.0;;;9.0;;
22673;SDS011;11504;43.334;21.918;2022-07-10T08:19:46;10.0;;;9.0;;
22673;SDS011;11504;43.334;21.918;2022-07-10T08:24:22;10.0;;;9.0;;
22673;SDS011;11504;43.334;21.918;2022-07-10T08:28:58;10.0;;;9.0;;
22673;SDS011;11504;43.334;21.918;2022-07-10T08:33:34;10.0;;;8.0;;
22673;SDS011;11504;43.334;21.918;2022-07-10T08:38:10;10.0;;;8.0;;
22673;SDS011;11504;43.334;21.918;2022-07-10T08:42:46;10.0;;;8.0;;
22673;SDS011;11504;43.334;21.918;2022-07-10T08:47:24;9.0;;;8.0;;
22673;SDS011;11504;43.334;21.918;2022-07-10T08:52:04;9.0;;;8.0;;
22673;SDS011;11504;43.334;21.918;2022-07-10T08:57:09;8.0;;;8.0;;
22673;SDS011;11504;43.334;21.918;2022-07-10T09:01:53;8.0;;;8.0;;
22673;SDS011;11504;43.334;21.918;2022-07-10T09:06:32;8.0;;;7.0;;
22673;SDS011;11504;43.334;21.918;2022-07-10T09:11:14;8.0;;;7.0;;
22673;SDS011;11504;43.334;21.918;2022-07-10T09:15:54;8.0;;;8.0;;
22673;SDS011;11504;43.334;21.918;2022-07-10T09:20:37;8.0;;;8.0;;
22673;SDS011;11504;43.334;21.918;2022-07-10T09:25:16;8.0;;;8.0;;
22673;SDS011;11504;43.334;21.918;2022-07-10T09:29:53;8.0;;;8.0;;
22673;SDS011;11504;43.334;21.918;2022-07-10T09:34:36;8.0;;;8.0;;
22673;SDS011;11504;43.334;21.918;2022-07-10T09:39:23;8.0;;;8.0;;
22673;SDS011;11504;43.334;21.918;2022-07-10T09:44:03;8.0;;;8.0;;
22673;SDS011;11504;43.334;21.918;2022-07-10T09:48:42;8.0;;;8.0;;
22673;SDS011;11504;43.334;21.918;2022-07-10T09:53:20;8.0;;;8.0;;
22673;SDS011;11504;43.334;21.918;2022-07-10T09:58:01;8.0;;;8.0;;
22673;SDS011;11504;43.334;21.918;2022-07-10T10:02:46;8.0;;;8.0;;
22673;SDS011;11504;43.334;21.918;2022-07-10T10:07:37;8.0;;;7.0;;
22673;SDS011;11504;43.334;21.918;2022-07-10T10:12:23;8.0;;;7.0;;
22673;SDS011;11504;43.334;21.918;2022-07-10T10:17:30;8.0;;;7.0;;
22673;SDS011;11504;43.334;21.918;2022-07-10T10:22:13;8.0;;;7.0;;
22673;SDS011;11504;43.334;21.918;2022-07-10T10:26:56;8.0;;;7.0;;
22673;SDS011;11504;43.334;21.918;2022-07-10T10:31:36;8.0;;;7.0;;
22673;SDS011;11504;43.334;21.918;2022-07-10T10:36:45;8.0;;;6.0;;
22673;SDS011;11504;43.334;21.918;2022-07-10T10:41:23;8.0;;;6.0;;
22673;SDS011;11504;43.334;21.918;2022-07-10T10:46:23;7.0;;;6.0;;
22673;SDS011;11504;43.334;21.918;2022-07-10T10:51:01;7.0;;;6.0;;
22673;SDS011;11504;43.334;21.918;2022-07-10T10:55:37;6.0;;;6.0;;
22673;SDS011;11504;43.334;21.918;2022-07-10T11:00:30;6.0;;;6.0;;
22673;SDS011;11504;43.334;21.918;2022-07-10T11:05:43;6.0;;;6.0;;
22673;SDS011;11504;43.334;21.918;2022-07-10T11:10:28;6.0;;;6.0;;
22673;SDS011;11504;43.334;21.918;2022-07-10T11:15:13;7.0;;;7.0;;
22673;SDS011;11504;43.334;21.918;2022-07-10T11:19:52;7.0;;;7.0;;
22673;SDS011;11504;43.334;21.918;2022-07-10T11:24:42;8.0;;;8.0;;
22673;SDS011;11504;43.334;21.918;2022-07-10T11:30:07;8.0;;;8.0;;
22673;SDS011;11504;43.334;21.918;2022-07-10T11:34:44;8.0;;;8.0;;
22673;SDS011;11504;43.334;21.918;2022-07-10T11:39:20;8.0;;;8.0;;
22673;SDS011;11504;43.334;21.918;2022-07-10T11:44:00;8.0;;;7.0;;
22673;SDS011;11504;43.334;21.918;2022-07-10T11:48:40;8.0;;;7.0;;
22673;SDS011;11504;43.334;21.918;2022-07-10T11:53:24;8.0;;;7.0;;
22673;SDS011;11504;43.334;21.918;2022-07-10T11:58:13;8.0;;;7.0;;
22673;SDS011;11504;43.334;21.918;2022-07-10T12:02:57;8.0;;;7.0;;
22673;SDS011;11504;43.334;21.918;2022-07-10T12:07:57;7.0;;;7.0;;
22673;SDS011;11504;43.334;21.918;2022-07-10T12:12:36;7.0;;;7.0;;
22673;SDS011;11504;43.334;21.918;2022-07-10T12:17:13;7.0;;;7.0;;
22673;SDS011;11504;43.334;21.918;2022-07-10T12:21:51;7.0;;;7.0;;
22673;SDS011;11504;43.334;21.918;2022-07-10T12:26:33;7.0;;;7.0;;
22673;SDS011;11504;43.334;21.918;2022-07-10T12:31:21;7.0;;;7.0;;
22673;SDS011;11504;43.334;21.918;2022-07-10T12:36:07;7.0;;;6.0;;
22673;SDS011;11504;43.334;21.918;2022-07-10T12:40:43;7.0;;;6.0;;
22673;SDS011;11504;43.334;21.918;2022-07-10T12:45:22;7.0;;;6.0;;
22673;SDS011;11504;43.334;21.918;2022-07-10T12:50:03;7.0;;;6.0;;
22673;SDS011;11504;43.334;21.918;2022-07-10T12:54:44;7.0;;;6.0;;
22673;SDS011;11504;43.334;21.918;2022-07-10T12:59:21;7.0;;;6.0;;
22673;SDS011;11504;43.334;21.918;2022-07-10T13:04:01;7.0;;;6.0;;
22673;SDS011;11504;43.334;21.918;2022-07-10T13:08:45;7.0;;;6.0;;
22673;SDS011;11504;43.334;21.918;2022-07-10T13:13:22;8.0;;;7.0;;
22673;SDS011;11504;43.334;21.918;2022-07-10T13:17:59;8.0;;;7.0;;
22673;SDS011;11504;43.334;21.918;2022-07-10T13:22:36;8.0;;;7.0;;
22673;SDS011;11504;43.334;21.918;2022-07-10T13:27:13;10.0;;;8.0;;
22673;SDS011;11504;43.334;21.918;2022-07-10T13:31:50;10.0;;;8.0;;
22673;SDS011;11504;43.334;21.918;2022-07-10T13:36:26;10.0;;;8.0;;
22673;SDS011;11504;43.334;21.918;2022-07-10T13:41:03;10.0;;;8.0;;
22673;SDS011;11504;43.334;21.918;2022-07-10T13:45:40;11.0;;;7.0;;
22673;SDS011;11504;43.334;21.918;2022-07-10T13:50:17;11.0;;;7.0;;
22673;SDS011;11504;43.334;21.918;2022-07-10T13:54:54;10.0;;;8.0;;
22673;SDS011;11504;43.334;21.918;2022-07-10T13:59:30;10.0;;;8.0;;
22673;SDS011;11504;43.334;21.918;2022-07-10T14:04:07;8.0;;;8.0;;
22673;SDS011;11504;43.334;21.918;2022-07-10T14:08:43;8.0;;;8.0;;
22673;SDS011;11504;43.334;21.918;2022-07-10T14:13:20;8.0;;;8.0;;
22673;SDS011;11504;43.334;21.918;2022-07-10T14:17:56;7.0;;;6.0;;
22673;SDS011;11504;43.334;21.918;2022-07-10T14:22:33;7.0;;;6.0;;
22673;SDS011;11504;43.334;21.918;2022-07-10T14:27:12;6.0;;;5.0;;
22673;SDS011;11504;43.334;21.918;2022-07-10T14:31:49;6.0;;;5.0;;
22673;SDS011;11504;43.334;21.918;2022-07-10T14:36:28;6.0;;;5.0;;
22673;SDS011;11504;43.334;21.918;2022-07-10T14:41:05;6.0;;;5.0;;
22673;SDS011;11504;43.334;21.918;2022-07-10T14:45:42;5.0;;;5.0;;
22673;SDS011;11504;43.334;21.918;2022-07-10T14:50:19;5.0;;;5.0;;
22673;SDS011;11504;43.334;21.918;2022-07-10T14:54:56;5.0;;;5.0;;
22673;SDS011;11504;43.334;21.918;2022-07-10T14:59:33;5.0;;;5.0;;
22673;SDS011;11504;43.334;21.918;2022-07-10T15:04:10;5.0;;;5.0;;
22673;SDS011;11504;43.334;21.918;2022-07-10T15:08:47;5.0;;;5.0;;
22673;SDS011;11504;43.334;21.918;2022-07-10T15:13:23;5.0;;;5.0;;
22673;SDS011;11504;43.334;21.918;2022-07-10T15:18:00;5.0;;;5.0;;
22673;SDS011;11504;43.334;21.918;2022-07-10T15:22:37;5.0;;;5.0;;
22673;SDS011;11504;43.334;21.918;2022-07-10T15:27:15;5.0;;;5.0;;
22673;SDS011;11504;43.334;21.918;2022-07-10T15:31:52;5.0;;;5.0;;
22673;SDS011;11504;43.334;21.918;2022-07-10T15:36:28;6.0;;;6.0;;
22673;SDS011;11504;43.334;21.918;2022-07-10T15:41:05;6.0;;;6.0;;
22673;SDS011;11504;43.334;21.918;2022-07-10T15:45:43;6.0;;;6.0;;
22673;SDS011;11504;43.334;21.918;2022-07-10T15:50:20;6.0;;;6.0;;
22673;SDS011;11504;43.334;21.918;2022-07-10T15:54:57;7.0;;;6.0;;
22673;SDS011;11504;43.334;21.918;2022-07-10T15:59:34;7.0;;;6.0;;
22673;SDS011;11504;43.334;21.918;2022-07-10T16:04:10;8.0;;;7.0;;
22673;SDS011;11504;43.334;21.918;2022-07-10T16:08:47;8.0;;;7.0;;
22673;SDS011;11504;43.334;21.918;2022-07-10T16:13:23;8.0;;;7.0;;
22673;SDS011;11504;43.334;21.918;2022-07-10T16:18:00;8.0;;;7.0;;
22673;SDS011;11504;43.334;21.918;2022-07-10T16:22:36;8.0;;;7.0;;
22673;SDS011;11504;43.334;21.918;2022-07-10T16:27:12;7.0;;;7.0;;
22673;SDS011;11504;43.334;21.918;2022-07-10T16:31:49;7.0;;;7.0;;
22673;SDS011;11504;43.334;21.918;2022-07-10T16:36:25;8.0;;;7.0;;
22673;SDS011;11504;43.334;21.918;2022-07-10T16:41:01;8.0;;;7.0;;
22673;SDS011;11504;43.334;21.918;2022-07-10T16:45:38;8.0;;;7.0;;
22673;SDS011;11504;43.334;21.918;2022-07-10T16:50:19;8.0;;;7.0;;
22673;SDS011;11504;43.334;21.918;2022-07-10T16:54:57;8.0;;;7.0;;
22673;SDS011;11504;43.334;21.918;2022-07-10T16:59:34;8.0;;;7.0;;
22673;SDS011;11504;43.334;21.918;2022-07-10T17:04:10;7.0;;;7.0;;
22673;SDS011;11504;43.334;21.918;2022-07-10T17:08:47;7.0;;;7.0;;
22673;SDS011;11504;43.334;21.918;2022-07-10T17:13:23;7.0;;;7.0;;
22673;SDS011;11504;43.334;21.918;2022-07-10T17:18:00;6.0;;;6.0;;
22673;SDS011;11504;43.334;21.918;2022-07-10T17:22:38;6.0;;;6.0;;
22673;SDS011;11504;43.334;21.918;2022-07-10T17:27:16;6.0;;;6.0;;
22673;SDS011;11504;43.334;21.918;2022-07-10T17:31:54;6.0;;;6.0;;
22673;SDS011;11504;43.334;21.918;2022-07-10T17:36:31;6.0;;;6.0;;
22673;SDS011;11504;43.334;21.918;2022-07-10T17:41:09;6.0;;;6.0;;
22673;SDS011;11504;43.334;21.918;2022-07-10T17:45:45;7.0;;;7.0;;
22673;SDS011;11504;43.334;21.918;2022-07-10T17:50:22;7.0;;;7.0;;
22673;SDS011;11504;43.334;21.918;2022-07-10T17:54:59;7.0;;;7.0;;
22673;SDS011;11504;43.334;21.918;2022-07-10T17:59:37;7.0;;;7.0;;
22673;SDS011;11504;43.334;21.918;2022-07-10T18:04:13;7.0;;;7.0;;
22673;SDS011;11504;43.334;21.918;2022-07-10T18:08:51;7.0;;;7.0;;
22673;SDS011;11504;43.334;21.918;2022-07-10T18:13:27;7.0;;;7.0;;
22673;SDS011;11504;43.334;21.918;2022-07-10T18:18:04;8.0;;;7.0;;
22673;SDS011;11504;43.334;21.918;2022-07-10T18:22:41;8.0;;;7.0;;
22673;SDS011;11504;43.334;21.918;2022-07-10T18:27:18;8.0;;;7.0;;
22673;SDS011;11504;43.334;21.918;2022-07-10T18:31:56;8.0;;;7.0;;
22673;SDS011;11504;43.334;21.918;2022-07-10T18:36:33;8.0;;;6.0;;
22673;SDS011;11504;43.334;21.918;2022-07-10T18:41:10;8.0;;;6.0;;
22673;SDS011;11504;43.334;21.918;2022-07-10T18:45:47;7.0;;;6.0;;
22673;SDS011;11504;43.334;21.918;2022-07-10T18:50:24;7.0;;;6.0;;
22673;SDS011;11504;43.334;21.918;2022-07-10T18:55:00;8.0;;;7.0;;
22673;SDS011;11504;43.334;21.918;2022-07-10T18:59:37;8.0;;;7.0;;
22673;SDS011;11504;43.334;21.918;2022-07-10T19:04:13;9.0;;;8.0;;
22673;SDS011;11504;43.334;21.918;2022-07-10T19:08:49;9.0;;;8.0;;
22673;SDS011;11504;43.334;21.918;2022-07-10T19:13:25;9.0;;;8.0;;
22673;SDS011;11504;43.334;21.918;2022-07-10T19:18:01;10.0;;;8.0;;
22673;SDS011;11504;43.334;21.918;2022-07-10T19:22:38;10.0;;;8.0;;
22673;SDS011;11504;43.334;21.918;2022-07-10T19:27:15;11.0;;;8.0;;
22673;SDS011;11504;43.334;21.918;2022-07-10T19:31:51;11.0;;;8.0;;
22673;SDS011;11504;43.334;21.918;2022-07-10T19:36:27;9.0;;;8.0;;
22673;SDS011;11504;43.334;21.918;2022-07-10T19:41:04;9.0;;;8.0;;
22673;SDS011;11504;43.334;21.918;2022-07-10T19:45:42;7.0;;;7.0;;
22673;SDS011;11504;43.334;21.918;2022-07-10T19:50:19;7.0;;;7.0;;
22673;SDS011;11504;43.334;21.918;2022-07-10T19:54:56;8.0;;;8.0;;
22673;SDS011;11504;43.334;21.918;2022-07-10T19:59:34;8.0;;;8.0;;
22673;SDS011;11504;43.334;21.918;2022-07-10T20:04:12;10.0;;;9.0;;
22673;SDS011;11504;43.334;21.918;2022-07-10T20:08:50;10.0;;;9.0;;
22673;SDS011;11504;43.334;21.918;2022-07-10T20:13:27;10.0;;;9.0;;
22673;SDS011;11504;43.334;21.918;2022-07-10T20:18:04;10.0;;;8.0;;
22673;SDS011;11504;43.334;21.918;2022-07-10T20:22:40;10.0;;;8.0;;
22673;SDS011;11504;43.334;21.918;2022-07-10T20:27:18;9.0;;;8.0;;
22673;SDS011;11504;43.334;21.918;2022-07-10T20:31:55;9.0;;;8.0;;
22673;SDS011;11504;43.334;21.918;2022-07-10T20:36:32;10.0;;;9.0;;
22673;SDS011;11504;43.334;21.918;2022-07-10T20:41:09;10.0;;;9.0;;
22673;SDS011;11504;43.334;21.918;2022-07-10T20:45:47;11.0;;;10.0;;
22673;SDS011;11504;43.334;21.918;2022-07-10T20:50:24;11.0;;;10.0;;
22673;SDS011;11504;43.334;21.918;2022-07-10T20:55:00;10.0;;;9.0;;
22673;SDS011;11504;43.334;21.918;2022-07-10T20:59:41;10.0;;;9.0;;
22673;SDS011;11504;43.334;21.918;2022-07-10T21:04:19;9.0;;;8.0;;
22673;SDS011;11504;43.334;21.918;2022-07-10T21:08:57;9.0;;;8.0;;
22673;SDS011;11504;43.334;21.918;2022-07-10T21:13:34;9.0;;;8.0;;
22673;SDS011;11504;43.334;21.918;2022-07-10T21:18:11;11.0;;;10.0;;
22673;SDS011;11504;43.334;21.918;2022-07-10T21:22:49;11.0;;;10.0;;
22673;SDS011;11504;43.334;21.918;2022-07-10T21:27:26;13.0;;;12.0;;
22673;SDS011;11504;43.334;21.918;2022-07-10T21:32:03;13.0;;;12.0;;
22673;SDS011;11504;43.334;21.918;2022-07-10T21:36:41;12.0;;;10.0;;
22673;SDS011;11504;43.334;21.918;2022-07-10T21:41:18;12.0;;;10.0;;
22673;SDS011;11504;43.334;21.918;2022-07-10T21:45:55;10.0;;;9.0;;
22673;SDS011;11504;43.334;21.918;2022-07-10T21:50:31;10.0;;;9.0;;
22673;SDS011;11504;43.334;21.918;2022-07-10T21:55:08;10.0;;;10.0;;
22673;SDS011;11504;43.334;21.918;2022-07-10T21:59:46;10.0;;;10.0;;
22673;SDS011;11504;43.334;21.918;2022-07-10T22:04:22;11.0;;;10.0;;
22673;SDS011;11504;43.334;21.918;2022-07-10T22:08:59;11.0;;;10.0;;
22673;SDS011;11504;43.334;21.918;2022-07-10T22:13:35;11.0;;;10.0;;
22673;SDS011;11504;43.334;21.918;2022-07-10T22:18:12;10.0;;;10.0;;
22673;SDS011;11504;43.334;21.918;2022-07-10T22:22:49;10.0;;;10.0;;
22673;SDS011;11504;43.334;21.918;2022-07-10T22:27:26;10.0;;;9.0;;
22673;SDS011;11504;43.334;21.918;2022-07-10T22:32:03;10.0;;;9.0;;
22673;SDS011;11504;43.334;21.918;2022-07-10T22:36:44;12.0;;;10.0;;
22673;SDS011;11504;43.334;21.918;2022-07-10T22:41:21;12.0;;;10.0;;
22673;SDS011;11504;43.334;21.918;2022-07-10T22:45:59;13.0;;;12.0;;
22673;SDS011;11504;43.334;21.918;2022-07-10T22:50:36;13.0;;;12.0;;
22673;SDS011;11504;43.334;21.918;2022-07-10T22:55:13;10.0;;;9.0;;
22673;SDS011;11504;43.334;21.918;2022-07-10T22:59:50;10.0;;;9.0;;
22673;SDS011;11504;43.334;21.918;2022-07-10T23:04:27;6.0;;;6.0;;
22673;SDS011;11504;43.334;21.918;2022-07-10T23:09:03;6.0;;;6.0;;
22673;SDS011;11504;43.334;21.918;2022-07-10T23:13:41;6.0;;;6.0;;
22673;SDS011;11504;43.334;21.918;2022-07-10T23:18:18;6.0;;;6.0;;
22673;SDS011;11504;43.334;21.918;2022-07-10T23:22:55;6.0;;;6.0;;
22673;SDS011;11504;43.334;21.918;2022-07-10T23:27:32;6.0;;;6.0;;
22673;SDS011;11504;43.334;21.918;2022-07-10T23:32:10;6.0;;;6.0;;
22673;SDS011;11504;43.334;21.918;2022-07-10T23:36:46;6.0;;;6.0;;
22673;SDS011;11504;43.334;21.918;2022-07-10T23:41:23;6.0;;;6.0;;
22673;SDS011;11504;43.334;21.918;2022-07-10T23:46:00;7.0;;;7.0;;
22673;SDS011;11504;43.334;21.918;2022-07-10T23:50:36;7.0;;;7.0;;
22673;SDS011;11504;43.334;21.918;2022-07-10T23:55:13;7.0;;;7.0;;
22673;SDS011;11504;43.334;21.918;2022-07-10T23:59:50;7.0;;;7.0;;
